Valday, Russia
Current Conditions -  °F | °C
As of 5:00 PM on Sunday 21 Dec 2014 (Local Time) from ULLI Reporting Station
Broken Clouds Broken Clouds  
Wind Chill: 19°   Ceiling: 6600
Heat Index: 28°   Visibility: 6mi
Dew Point: 25°   Wind: 11mph
Humidity: 86%   Direction: 250°WSW
Pressure: 29.29"   Gusts: NA
Location:  57.97°N, 33.25°E
Report Text: ULLI 211400Z 25005MPS 9999 SCT032 BKN066 M02/M04 Q0992 88510350NOSIG
Loading
Personal Weather Stations






























Interactive Weather Map New forecast layout! Learn more

10-Day Weather Forecast

Advertisements
Track Severe Weather on mobile